createdAt,value
2018-06-29T00:00:19.899Z,18.01
2018-06-29T00:01:29.461Z,17.8
2018-06-29T00:02:39.616Z,18.01
2018-06-29T00:03:49.868Z,17.95
2018-06-29T00:05:00.140Z,18.02
2018-06-29T00:06:10.361Z,18
2018-06-29T00:07:20.600Z,17.95
2018-06-29T00:08:30.818Z,17.97
2018-06-29T00:09:40.993Z,17.94
2018-06-29T00:10:51.195Z,17.92
2018-06-29T00:12:01.549Z,17.89
2018-06-29T00:13:11.452Z,17.92
2018-06-29T00:14:21.658Z,17.87
2018-06-29T00:15:31.803Z,17.89
2018-06-29T00:16:42.096Z,17.87
2018-06-29T00:17:52.058Z,17.7
2018-06-29T00:19:01.939Z,17.87
2018-06-29T00:20:12.085Z,17.73
2018-06-29T00:21:22.355Z,17.68
2018-06-29T00:22:33.481Z,17.73
2018-06-29T00:23:43.624Z,17.7
2018-06-29T00:24:53.902Z,17.65
2018-06-29T00:26:04.062Z,17.6
2018-06-29T00:27:14.337Z,17.61
2018-06-29T00:28:24.563Z,17.57
2018-06-29T00:29:34.799Z,17.61
2018-06-29T00:30:44.765Z,17.61
2018-06-29T00:31:54.904Z,17.55
2018-06-29T00:33:05.035Z,17.6
2018-06-29T00:34:15.205Z,17.55
2018-06-29T00:35:25.161Z,17.61
2018-06-29T00:36:35.177Z,17.61
2018-06-29T00:37:45.339Z,17.62
2018-06-29T00:38:55.481Z,17.57
2018-06-29T00:40:05.756Z,17.6
2018-06-29T00:41:16.143Z,17.62
2018-06-29T00:42:26.267Z,17.52
2018-06-29T00:43:36.466Z,17.47
2018-06-29T00:44:47.262Z,17.58
2018-06-29T00:45:57.526Z,17.55
2018-06-29T00:47:08.192Z,17.55
2018-06-29T00:48:18.055Z,17.49
2018-06-29T00:49:28.220Z,17.54
2018-06-29T00:50:38.113Z,17.49
2018-06-29T00:51:48.232Z,17.5
2018-06-29T00:52:58.364Z,17.46
2018-06-29T00:54:08.534Z,17.43
2018-06-29T00:55:18.560Z,17.42
2018-06-29T00:56:28.847Z,17.43
2018-06-29T00:57:39.159Z,17.36
2018-06-29T00:58:49.302Z,17.35
2018-06-29T00:59:59.693Z,17.28
2018-06-29T01:01:09.480Z,17.32
2018-06-29T01:02:19.620Z,17.27
2018-06-29T01:03:29.156Z,17.21
2018-06-29T01:04:40.012Z,17.28
2018-06-29T01:05:50.158Z,17.3
2018-06-29T01:07:00.077Z,17.23
2018-06-29T01:08:10.370Z,17.19
2018-06-29T01:09:20.388Z,17.17
2018-06-29T01:10:30.568Z,17.17
2018-06-29T01:11:42.822Z,17.19
2018-06-29T01:12:53.769Z,17.16
2018-06-29T01:14:03.928Z,17.14
2018-06-29T01:15:14.088Z,17.17
2018-06-29T01:16:24.253Z,17.16
2018-06-29T01:17:34.060Z,17.09
2018-06-29T01:18:44.204Z,17.04
2018-06-29T01:19:54.348Z,17.04
2018-06-29T01:21:04.577Z,17.09
2018-06-29T01:22:14.861Z,17.01
2018-06-29T01:23:25.003Z,16.99
2018-06-29T01:24:35.161Z,16.94
2018-06-29T01:25:45.443Z,16.91
2018-06-29T01:26:55.611Z,16.91
2018-06-29T01:28:05.806Z,16.9
2018-06-29T01:29:16.174Z,16.82
2018-06-29T01:30:26.309Z,16.86
2018-06-29T01:31:36.214Z,16.79
2018-06-29T01:32:46.433Z,16.86
2018-06-29T01:33:56.634Z,16.75
2018-06-29T01:35:06.749Z,16.69
2018-06-29T01:36:16.875Z,16.69
2018-06-29T01:37:27.024Z,16.76
2018-06-29T01:38:36.908Z,16.79
2018-06-29T01:39:47.139Z,16.8
2018-06-29T01:40:56.692Z,16.74
2018-06-29T01:42:06.850Z,16.68
2018-06-29T01:43:17.000Z,16.75
2018-06-29T01:44:27.197Z,16.74
2018-06-29T01:45:37.320Z,16.68
2018-06-29T01:46:47.483Z,16.66
2018-06-29T01:47:57.670Z,16.68
2018-06-29T01:49:07.855Z,16.66
2018-06-29T01:50:18.101Z,16.71
2018-06-29T01:51:28.093Z,16.68
2018-06-29T01:52:38.401Z,16.69
2018-06-29T01:53:48.839Z,16.62
2018-06-29T01:54:58.980Z,16.59
2018-06-29T01:56:09.378Z,16.62
2018-06-29T01:57:19.267Z,16.61
2018-06-29T01:58:30.142Z,16.51
2018-06-29T01:59:40.309Z,16.59
2018-06-29T02:00:50.429Z,16.61
2018-06-29T02:02:00.596Z,16.62
2018-06-29T02:03:10.937Z,16.51
2018-06-29T02:04:21.061Z,16.51
2018-06-29T02:05:31.178Z,16.46
2018-06-29T02:06:41.049Z,16.5
2018-06-29T02:07:50.945Z,16.51
2018-06-29T02:09:00.899Z,16.49
2018-06-29T02:10:11.038Z,16.39
2018-06-29T02:11:21.278Z,16.49
2018-06-29T02:12:31.637Z,16.39
2018-06-29T02:13:41.780Z,16.42
2018-06-29T02:14:51.953Z,16.54
2018-06-29T02:16:02.095Z,16.49
2018-06-29T02:17:12.305Z,16.39
2018-06-29T02:18:22.495Z,16.44
2018-06-29T02:19:32.718Z,16.46
2018-06-29T02:20:42.988Z,16.44
2018-06-29T02:21:53.158Z,16.34
2018-06-29T02:23:03.418Z,16.38
2018-06-29T02:24:13.592Z,16.39
2018-06-29T02:25:23.765Z,16.43
2018-06-29T02:26:33.969Z,16.32
2018-06-29T02:27:44.578Z,16.44
2018-06-29T02:28:55.097Z,16.47
2018-06-29T02:30:05.236Z,16.35
2018-06-29T02:31:15.445Z,16.31
2018-06-29T02:32:25.590Z,16.32
2018-06-29T02:33:35.892Z,16.38
2018-06-29T02:34:45.862Z,16.35
2018-06-29T02:35:56.289Z,16.29
2018-06-29T02:37:06.464Z,16.31
2018-06-29T02:38:16.337Z,16.28
2018-06-29T02:39:26.537Z,16.27
2018-06-29T02:40:36.794Z,16.2
2018-06-29T02:41:46.926Z,16.29
2018-06-29T02:42:57.174Z,16.2
2018-06-29T02:44:07.420Z,16.17
2018-06-29T02:45:17.645Z,16.21
2018-06-29T02:46:27.260Z,16.19
2018-06-29T02:47:37.526Z,16.21
2018-06-29T02:48:48.681Z,16.13
2018-06-29T02:49:58.826Z,16.19
2018-06-29T02:51:08.825Z,16.17
2018-06-29T02:52:19.034Z,16.13
2018-06-29T02:53:29.187Z,16.07
2018-06-29T02:54:38.781Z,16.14
2018-06-29T02:55:48.993Z,16.13
2018-06-29T02:56:59.158Z,16.13
2018-06-29T02:58:09.323Z,16.19
2018-06-29T02:59:19.453Z,16.06
2018-06-29T03:00:29.578Z,16.14
2018-06-29T03:01:39.480Z,16.09
2018-06-29T03:02:49.646Z,16.14
2018-06-29T03:03:59.766Z,16.09
2018-06-29T03:05:09.996Z,16.1
2018-06-29T03:06:20.162Z,16.04
2018-06-29T03:07:30.345Z,16.1
2018-06-29T03:08:40.532Z,15.99
2018-06-29T03:09:50.400Z,16.01
2018-06-29T03:11:00.578Z,15.98
2018-06-29T03:12:10.809Z,15.95
2018-06-29T03:13:21.028Z,15.98
2018-06-29T03:14:31.231Z,15.94
2018-06-29T03:15:41.099Z,15.89
2018-06-29T03:16:51.310Z,15.82
2018-06-29T03:18:01.459Z,15.82
2018-06-29T03:19:11.675Z,15.89
2018-06-29T03:20:21.829Z,15.89
2018-06-29T03:21:32.015Z,15.84
2018-06-29T03:22:42.227Z,15.8
2018-06-29T03:23:52.421Z,15.87
2018-06-29T03:25:02.328Z,15.8
2018-06-29T03:26:12.355Z,15.82
2018-06-29T03:27:22.718Z,15.79
2018-06-29T03:28:32.582Z,15.8
2018-06-29T03:29:42.925Z,15.84
2018-06-29T03:30:53.350Z,15.84
2018-06-29T03:32:03.589Z,15.82
2018-06-29T03:33:13.524Z,15.84
2018-06-29T03:34:23.654Z,15.76
2018-06-29T03:35:33.825Z,15.79
2018-06-29T03:36:43.701Z,15.78
2018-06-29T03:37:53.475Z,15.76
2018-06-29T03:39:03.337Z,15.73
2018-06-29T03:40:14.717Z,15.76
2018-06-29T03:41:25.134Z,15.7
2018-06-29T03:42:35.286Z,15.69
2018-06-29T03:43:45.411Z,15.66
2018-06-29T03:44:55.823Z,15.68
2018-06-29T03:46:05.969Z,15.7
2018-06-29T03:47:16.103Z,15.72
2018-06-29T03:48:26.220Z,15.7
2018-06-29T03:49:36.557Z,15.72
2018-06-29T03:50:46.755Z,15.68
2018-06-29T03:51:56.303Z,15.82
2018-06-29T03:53:06.311Z,15.72
2018-06-29T03:54:17.432Z,15.75
2018-06-29T03:55:27.560Z,15.73
2018-06-29T03:56:37.705Z,15.82
2018-06-29T03:57:47.656Z,15.87
2018-06-29T03:58:57.790Z,15.84
2018-06-29T04:00:07.960Z,15.87
2018-06-29T04:01:18.310Z,15.88
2018-06-29T04:02:28.440Z,15.84
2018-06-29T04:03:38.579Z,15.92
2018-06-29T04:04:48.467Z,15.95
2018-06-29T04:05:58.364Z,15.94
2018-06-29T04:07:08.490Z,15.91
2018-06-29T04:08:18.635Z,15.96
2018-06-29T04:09:28.756Z,16.01
2018-06-29T04:10:38.949Z,16.1
2018-06-29T04:11:49.448Z,16.04
2018-06-29T04:12:59.800Z,16.09
2018-06-29T04:14:10.219Z,16.13
2018-06-29T04:15:20.500Z,16.09
2018-06-29T04:16:30.656Z,16.2
2018-06-29T04:17:40.305Z,16.24
2018-06-29T04:18:50.506Z,16.17
2018-06-29T04:20:00.656Z,16.25
2018-06-29T04:21:10.985Z,16.31
2018-06-29T04:22:21.242Z,16.35
2018-06-29T04:23:31.407Z,16.36
2018-06-29T04:24:41.315Z,16.29
2018-06-29T04:25:51.716Z,16.29
2018-06-29T04:27:02.079Z,16.43
2018-06-29T04:28:12.286Z,16.43
2018-06-29T04:29:22.531Z,16.43
2018-06-29T04:30:32.725Z,16.46
2018-06-29T04:31:42.939Z,16.51
2018-06-29T04:32:53.645Z,16.44
2018-06-29T04:34:03.869Z,16.5
2018-06-29T04:35:13.780Z,16.5
2018-06-29T04:36:23.913Z,16.51
2018-06-29T04:37:34.101Z,16.53
2018-06-29T04:38:44.015Z,16.62
2018-06-29T04:39:54.148Z,16.51
2018-06-29T04:41:04.338Z,16.62
2018-06-29T04:42:14.444Z,16.69
2018-06-29T04:43:24.688Z,16.71
2018-06-29T04:44:34.833Z,16.79
2018-06-29T04:45:44.960Z,16.9
2018-06-29T04:46:55.098Z,16.9
2018-06-29T04:48:05.220Z,16.91
2018-06-29T04:49:15.161Z,16.99
2018-06-29T04:50:25.477Z,17.01
2018-06-29T04:51:35.761Z,17.01
2018-06-29T04:52:45.997Z,17.05
2018-06-29T04:53:56.193Z,17.05
2018-06-29T04:55:06.361Z,17.01
2018-06-29T04:56:16.533Z,17.04
2018-06-29T04:57:58.574Z,17.06
2018-06-29T04:59:08.758Z,17.11
2018-06-29T05:00:19.058Z,17.17
2018-06-29T05:01:28.790Z,17.19
2018-06-29T05:02:38.659Z,17.21
2018-06-29T05:03:48.835Z,17.31
2018-06-29T05:04:58.997Z,17.27
2018-06-29T05:06:09.317Z,17.3
2018-06-29T05:07:19.180Z,17.43
2018-06-29T05:08:29.123Z,17.42
2018-06-29T05:09:39.307Z,17.4
2018-06-29T05:10:49.557Z,17.42
2018-06-29T05:11:59.797Z,17.43
2018-06-29T05:13:10.061Z,17.49
2018-06-29T05:14:20.262Z,17.5
2018-06-29T05:15:30.620Z,17.47
2018-06-29T05:16:41.104Z,17.6
2018-06-29T05:17:51.440Z,17.64
2018-06-29T05:19:01.709Z,17.7
2018-06-29T05:20:11.918Z,17.77
2018-06-29T05:21:22.251Z,17.77
2018-06-29T05:22:32.392Z,17.76
2018-06-29T05:23:42.161Z,17.83
2018-06-29T05:24:52.298Z,17.85
2018-06-29T05:26:02.164Z,17.91
2018-06-29T05:27:12.334Z,17.94
2018-06-29T05:28:22.492Z,17.98
2018-06-29T05:29:32.878Z,18
2018-06-29T05:30:43.009Z,17.98
2018-06-29T05:31:53.148Z,17.98
2018-06-29T05:33:03.328Z,18.13
2018-06-29T05:34:13.495Z,18.09
2018-06-29T05:35:23.293Z,18.16
2018-06-29T05:36:33.462Z,18.15
2018-06-29T05:37:43.666Z,18.19
2018-06-29T05:38:53.895Z,18.26
2018-06-29T05:40:04.267Z,18.31
2018-06-29T05:41:14.639Z,18.35
2018-06-29T05:42:24.688Z,18.4
2018-06-29T05:43:34.823Z,18.3
2018-06-29T05:44:45.022Z,18.38
2018-06-29T05:45:55.213Z,18.31
2018-06-29T05:47:05.494Z,18.37
2018-06-29T05:48:16.718Z,18.42
2018-06-29T05:49:26.433Z,18.53
2018-06-29T05:50:36.633Z,18.67
2018-06-29T05:51:46.847Z,18.6
2018-06-29T05:52:56.999Z,18.57
2018-06-29T05:54:07.244Z,18.62
2018-06-29T05:55:17.161Z,18.62
2018-06-29T05:56:27.352Z,18.65
2018-06-29T05:57:37.755Z,18.72
2018-06-29T05:58:47.673Z,18.8
2018-06-29T05:59:57.940Z,18.79
2018-06-29T06:01:08.116Z,18.84
2018-06-29T06:02:18.371Z,18.78
2018-06-29T06:03:28.528Z,18.88
2018-06-29T06:04:38.548Z,18.94
2018-06-29T06:05:48.782Z,18.87
2018-06-29T06:06:58.943Z,18.94
2018-06-29T06:08:09.140Z,18.95
2018-06-29T06:09:19.264Z,18.95
2018-06-29T06:10:29.452Z,18.97
2018-06-29T06:11:39.644Z,19
2018-06-29T06:12:49.786Z,19.1
2018-06-29T06:14:00.062Z,19.13
2018-06-29T06:15:09.967Z,19.1
2018-06-29T06:16:20.128Z,19.1
2018-06-29T06:17:30.291Z,19.21
2018-06-29T06:18:40.456Z,19.27
2018-06-29T06:19:50.690Z,19.08
2018-06-29T06:21:01.201Z,19.16
2018-06-29T06:22:11.354Z,19.18
2018-06-29T06:23:21.514Z,19.13
2018-06-29T06:24:31.633Z,19.23
2018-06-29T06:25:41.839Z,19.31
2018-06-29T06:26:52.050Z,19.3
2018-06-29T06:28:02.220Z,19.34
2018-06-29T06:29:12.119Z,19.35
2018-06-29T06:30:22.249Z,19.4
2018-06-29T06:31:32.890Z,19.43
2018-06-29T06:32:43.236Z,19.48
2018-06-29T06:33:53.613Z,19.49
2018-06-29T06:35:03.763Z,19.53
2018-06-29T06:36:13.967Z,19.55
2018-06-29T06:37:24.139Z,19.52
2018-06-29T06:38:34.291Z,19.67
2018-06-29T06:39:44.552Z,19.6
2018-06-29T06:40:54.708Z,19.61
2018-06-29T06:42:04.871Z,19.64
2018-06-29T06:43:15.029Z,19.71
2018-06-29T06:44:25.162Z,19.7
2018-06-29T06:45:35.296Z,19.79
2018-06-29T06:46:45.450Z,19.82
2018-06-29T06:47:55.347Z,19.82
2018-06-29T06:49:05.576Z,19.83
2018-06-29T06:50:15.897Z,19.93
2018-06-29T06:51:26.175Z,19.88
2018-06-29T06:52:36.589Z,19.95
2018-06-29T06:53:47.071Z,19.97
2018-06-29T06:54:57.472Z,20.04
2018-06-29T06:56:07.449Z,20
2018-06-29T06:57:17.596Z,20.01
2018-06-29T06:58:27.375Z,20.01
2018-06-29T06:59:37.585Z,19.95
2018-06-29T07:00:47.756Z,20.04
2018-06-29T07:01:57.574Z,20.01
2018-06-29T07:03:07.454Z,20.08
2018-06-29T07:04:17.595Z,20.16
2018-06-29T07:05:27.793Z,20.07
2018-06-29T07:06:37.961Z,20.14
2018-06-29T07:07:48.218Z,20.08
2018-06-29T07:08:58.504Z,20.16
2018-06-29T07:10:08.674Z,20.21
2018-06-29T07:11:18.864Z,20.2
2018-06-29T07:12:29.277Z,20.19
2018-06-29T07:13:39.656Z,20.24
2018-06-29T07:14:49.792Z,20.26
2018-06-29T07:15:59.944Z,20.24
2018-06-29T07:17:10.135Z,20.26
2018-06-29T07:18:20.557Z,20.26
2018-06-29T07:19:31.121Z,20.3
2018-06-29T07:20:41.313Z,20.27
2018-06-29T07:21:51.504Z,20.41
2018-06-29T07:23:01.438Z,20.35
2018-06-29T07:24:11.589Z,20.38
2018-06-29T07:25:21.731Z,20.39
2018-06-29T07:26:31.949Z,20.34
2018-06-29T07:27:42.216Z,20.42
2018-06-29T07:28:52.232Z,20.35
2018-06-29T07:30:02.457Z,20.41
2018-06-29T07:31:11.744Z,20.43
2018-06-29T07:32:23.000Z,20.46
2018-06-29T07:33:33.201Z,20.53
2018-06-29T07:34:43.386Z,20.57
2018-06-29T07:35:53.300Z,20.63
2018-06-29T07:37:03.463Z,20.63
2018-06-29T07:38:13.709Z,20.71
2018-06-29T07:39:23.939Z,20.67
2018-06-29T07:40:34.119Z,20.79
2018-06-29T07:41:44.387Z,20.82
2018-06-29T07:42:54.331Z,20.73
2018-06-29T07:44:04.532Z,20.81
2018-06-29T07:45:14.431Z,20.83
2018-06-29T07:46:24.709Z,20.78
2018-06-29T07:47:34.876Z,20.88
2018-06-29T07:48:45.024Z,20.81
2018-06-29T07:49:55.265Z,20.81
2018-06-29T07:51:05.477Z,20.83
2018-06-29T07:52:15.310Z,20.88
2018-06-29T07:53:25.596Z,20.9
2018-06-29T07:54:35.804Z,20.9
2018-06-29T07:55:46.049Z,20.96
2018-06-29T07:56:55.947Z,20.98
2018-06-29T07:58:05.714Z,21.1
2018-06-29T07:59:16.166Z,21.08
2018-06-29T08:00:26.565Z,21.06
2018-06-29T08:01:36.524Z,21.08
2018-06-29T08:02:47.217Z,21.03
2018-06-29T08:03:57.746Z,21.06
2018-06-29T08:05:07.664Z,21.09
2018-06-29T08:06:17.914Z,21.1
2018-06-29T08:07:28.116Z,21.09
2018-06-29T08:08:38.420Z,21.2
2018-06-29T08:09:48.665Z,21.16
2018-06-29T08:10:58.867Z,21.18
2018-06-29T08:12:09.092Z,21.23
2018-06-29T08:13:18.971Z,21.2
2018-06-29T08:14:29.142Z,21.35
2018-06-29T08:15:39.278Z,21.3
2018-06-29T08:16:49.474Z,21.37
2018-06-29T08:17:59.468Z,21.38
2018-06-29T08:19:09.601Z,21.46
2018-06-29T08:20:19.502Z,21.38
2018-06-29T08:21:29.653Z,21.45
2018-06-29T08:22:39.800Z,21.5
2018-06-29T08:23:50.395Z,21.56
2018-06-29T08:25:00.812Z,21.6
2018-06-29T08:26:10.983Z,21.64
2018-06-29T08:27:21.130Z,21.71
2018-06-29T08:28:31.293Z,21.83
2018-06-29T08:29:41.184Z,21.94
2018-06-29T08:30:51.345Z,21.96
2018-06-29T08:32:01.483Z,22.06
2018-06-29T08:33:11.620Z,22.09
2018-06-29T08:34:21.290Z,22.18
2018-06-29T08:35:31.560Z,22.23
2018-06-29T08:36:41.471Z,22.28
2018-06-29T08:37:51.616Z,22.45
2018-06-29T08:39:01.791Z,22.55
2018-06-29T08:40:11.916Z,22.57
2018-06-29T08:41:22.159Z,22.61
2018-06-29T08:42:32.468Z,22.75
2018-06-29T08:43:42.686Z,22.9
2018-06-29T08:44:52.903Z,23.02
2018-06-29T08:46:03.106Z,23.03
2018-06-29T08:47:13.467Z,23.2
2018-06-29T08:48:23.521Z,23.2
2018-06-29T08:49:34.193Z,23.38
2018-06-29T08:50:44.651Z,23.42
2018-06-29T08:51:54.808Z,23.6
2018-06-29T08:53:05.430Z,23.77
2018-06-29T08:54:15.594Z,23.98
2018-06-29T08:55:25.738Z,24.13
2018-06-29T08:56:35.893Z,24.47
2018-06-29T08:57:45.419Z,24.76
2018-06-29T08:58:55.872Z,25.15
2018-06-29T09:00:06.294Z,25.27
2018-06-29T09:01:16.482Z,25.69
2018-06-29T09:02:27.363Z,26.33
2018-06-29T09:03:37.545Z,26.98
2018-06-29T09:04:47.702Z,27.65
2018-06-29T09:05:57.965Z,28.49
2018-06-29T09:07:08.142Z,29.1
2018-06-29T09:08:18.033Z,29.6
2018-06-29T09:09:27.414Z,29.94
2018-06-29T09:10:37.649Z,30.41
2018-06-29T09:11:47.799Z,30.75
2018-06-29T09:12:57.953Z,31.13
2018-06-29T09:14:08.508Z,31.07
2018-06-29T09:15:18.688Z,31.23
2018-06-29T09:16:28.609Z,31.53
2018-06-29T09:17:38.774Z,31.84
2018-06-29T09:18:49.003Z,31.99
2018-06-29T09:19:59.763Z,32.14
2018-06-29T09:21:09.946Z,32.31
2018-06-29T09:22:20.098Z,32.43
2018-06-29T09:23:30.261Z,32.46
2018-06-29T09:24:40.430Z,32.54
2018-06-29T09:25:50.670Z,32.62
2018-06-29T09:27:00.896Z,32.62
2018-06-29T09:28:11.089Z,32.81
2018-06-29T09:29:21.269Z,32.92
2018-06-29T09:30:31.641Z,32.98
2018-06-29T09:31:41.800Z,32.94
2018-06-29T09:32:51.759Z,33
2018-06-29T09:34:02.003Z,33.08
2018-06-29T09:35:12.190Z,33.05
2018-06-29T09:36:22.339Z,33.13
2018-06-29T09:37:32.833Z,33.17
2018-06-29T09:38:43.066Z,33.08
2018-06-29T09:39:53.245Z,33
2018-06-29T09:41:03.456Z,33.03
2018-06-29T09:42:16.684Z,33
2018-06-29T09:43:26.898Z,32.96
2018-06-29T09:44:38.182Z,32.87
2018-06-29T09:45:49.091Z,32.81
2018-06-29T09:47:00.525Z,32.88
2018-06-29T09:48:19.953Z,32.96
2018-06-29T09:49:29.973Z,32.53
2018-06-29T09:50:40.164Z,32.4
2018-06-29T09:51:50.370Z,32.36
2018-06-29T09:53:00.257Z,32.5
2018-06-29T09:54:10.743Z,32.58
2018-06-29T09:55:20.909Z,32.58
2018-06-29T09:56:31.144Z,32.68
2018-06-29T09:57:41.384Z,32.66
2018-06-29T09:58:51.548Z,32.6
2018-06-29T10:00:01.736Z,32.63
2018-06-29T10:01:12.043Z,32.53
2018-06-29T10:02:22.368Z,32.41
2018-06-29T10:03:46.830Z,32.43
2018-06-29T10:04:57.224Z,32.62
2018-06-29T10:06:07.450Z,32.5
2018-06-29T10:07:17.657Z,32.4
2018-06-29T10:08:27.832Z,32.36
2018-06-29T10:09:38.055Z,32.43
2018-06-29T10:10:48.291Z,32.46
2018-06-29T10:11:58.454Z,32.51
2018-06-29T10:13:08.616Z,32.56
2018-06-29T10:14:19.229Z,32.46
2018-06-29T10:15:29.538Z,32.38
2018-06-29T10:16:39.944Z,32.33
2018-06-29T10:17:50.149Z,32.26
2018-06-29T10:19:00.441Z,32.41
2018-06-29T10:20:11.064Z,32.41
2018-06-29T10:21:21.774Z,32.44
2018-06-29T10:22:32.187Z,32.72
2018-06-29T10:23:42.582Z,32.69
2018-06-29T10:24:53.774Z,32.6
2018-06-29T10:26:03.940Z,32.75
2018-06-29T10:27:14.101Z,32.98
2018-06-29T10:28:24.291Z,33.16
2018-06-29T10:29:34.569Z,33.19
2018-06-29T10:30:44.653Z,33.25
2018-06-29T10:31:54.975Z,33.35
2018-06-29T10:33:05.196Z,33.45
2018-06-29T10:34:15.150Z,33.59
2018-06-29T10:35:25.439Z,33.57
2018-06-29T10:36:35.709Z,33.59
2018-06-29T10:37:45.982Z,33.48
2018-06-29T10:38:56.372Z,33.54
2018-06-29T10:40:06.558Z,33.53
2018-06-29T10:41:16.750Z,33.61
2018-06-29T10:42:26.994Z,33.68
2018-06-29T10:43:37.033Z,33.75
2018-06-29T10:44:47.699Z,33.81
2018-06-29T10:45:58.153Z,33.78
2018-06-29T10:47:09.057Z,33.57
2018-06-29T10:48:19.123Z,33.45
2018-06-29T10:49:29.330Z,33.52
2018-06-29T10:50:39.505Z,33.38
2018-06-29T10:51:49.687Z,33.2
2018-06-29T10:52:59.703Z,32.92
2018-06-29T10:54:10.029Z,32.63
2018-06-29T10:55:20.247Z,32.32
2018-06-29T10:56:30.515Z,32.02
2018-06-29T10:57:40.725Z,31.58
2018-06-29T10:58:51.108Z,31.18
2018-06-29T11:00:01.360Z,31.09
2018-06-29T11:01:11.562Z,31.09
2018-06-29T11:02:21.730Z,31.09
2018-06-29T11:03:32.900Z,31.01
2018-06-29T11:04:43.138Z,30.98
2018-06-29T11:05:53.307Z,31.09
2018-06-29T11:07:03.521Z,31.15
2018-06-29T11:08:13.698Z,31.2
2018-06-29T11:09:23.861Z,31.18
2018-06-29T11:10:34.093Z,31.25
2018-06-29T11:11:44.341Z,31.2
2018-06-29T11:12:54.592Z,31.25
2018-06-29T11:14:04.789Z,31.19
2018-06-29T11:15:15.044Z,31.22
2018-06-29T11:16:25.213Z,31.2
2018-06-29T11:17:35.483Z,31.35
2018-06-29T11:18:46.135Z,31.65
2018-06-29T11:19:56.296Z,31.99
2018-06-29T11:21:06.447Z,32.13
2018-06-29T11:22:16.636Z,32.31
2018-06-29T11:23:26.811Z,32.48
2018-06-29T11:24:36.973Z,32.43
2018-06-29T11:25:47.160Z,32.59
2018-06-29T11:26:56.889Z,32.48
2018-06-29T11:28:06.881Z,32.48
2018-06-29T11:29:17.178Z,32.46
2018-06-29T11:30:27.200Z,32.53
2018-06-29T11:31:37.503Z,32.44
2018-06-29T11:32:47.989Z,32.38
2018-06-29T11:33:58.188Z,32.29
2018-06-29T11:35:08.096Z,32.31
2018-06-29T11:36:18.361Z,32.36
2018-06-29T11:37:28.287Z,32.35
2018-06-29T11:38:38.451Z,32.48
2018-06-29T11:39:48.691Z,32.43
2018-06-29T11:40:58.929Z,32.44
2018-06-29T11:42:09.183Z,32.51
2018-06-29T11:43:19.395Z,32.47
2018-06-29T11:44:29.317Z,32.58
2018-06-29T11:45:39.236Z,32.46
2018-06-29T11:46:49.594Z,32.46
2018-06-29T11:47:59.856Z,32.36
2018-06-29T11:49:10.033Z,32.5
2018-06-29T11:50:20.245Z,32.51
2018-06-29T11:51:30.537Z,32.58
2018-06-29T11:52:40.679Z,32.68
2018-06-29T11:53:50.865Z,32.78
2018-06-29T11:55:01.063Z,32.73
2018-06-29T11:56:11.246Z,32.6
2018-06-29T11:57:21.581Z,32.44
2018-06-29T11:58:32.768Z,32.32
2018-06-29T11:59:42.935Z,32.24
2018-06-29T12:00:53.137Z,32.13
2018-06-29T12:02:03.381Z,32.09
2018-06-29T12:03:13.637Z,31.98
2018-06-29T12:04:24.112Z,31.77
2018-06-29T12:05:34.286Z,31.73
2018-06-29T12:06:44.538Z,31.6
2018-06-29T12:07:54.820Z,31.42
2018-06-29T12:09:05.000Z,31.27
2018-06-29T12:10:15.164Z,31.04
2018-06-29T12:11:25.877Z,31.07
2018-06-29T12:12:36.061Z,30.91
2018-06-29T12:13:46.248Z,30.81
2018-06-29T12:14:56.670Z,30.53
2018-06-29T12:16:07.068Z,30.33
2018-06-29T12:17:17.381Z,30.11
2018-06-29T12:18:27.449Z,30
2018-06-29T12:19:37.647Z,30
2018-06-29T12:20:48.076Z,29.95
2018-06-29T12:21:58.075Z,29.97
2018-06-29T12:23:08.308Z,29.85
2018-06-29T12:24:18.554Z,29.8
2018-06-29T12:25:28.665Z,29.77
2018-06-29T12:26:39.009Z,29.72
2018-06-29T12:27:48.929Z,29.66
2018-06-29T12:28:58.998Z,29.7
2018-06-29T12:30:09.241Z,29.73
2018-06-29T12:31:19.225Z,29.77
2018-06-29T12:32:29.176Z,29.72
2018-06-29T12:33:39.351Z,29.76
2018-06-29T12:34:49.582Z,29.77
2018-06-29T12:35:59.770Z,29.73
2018-06-29T12:37:10.056Z,29.77
2018-06-29T12:38:21.201Z,29.67
2018-06-29T12:39:31.491Z,29.77
2018-06-29T12:40:41.729Z,29.69
2018-06-29T12:41:51.627Z,29.69
2018-06-29T12:43:02.074Z,29.66
2018-06-29T12:44:11.905Z,29.65
2018-06-29T12:45:22.109Z,29.54
2018-06-29T12:46:32.089Z,29.5
2018-06-29T12:47:42.006Z,29.39
2018-06-29T12:48:52.204Z,29.28
2018-06-29T12:50:02.461Z,29.03
2018-06-29T12:51:12.657Z,28.95
2018-06-29T12:52:22.858Z,28.91
2018-06-29T12:53:33.065Z,28.92
2018-06-29T12:54:43.265Z,28.96
2018-06-29T12:55:53.732Z,28.96
2018-06-29T12:57:04.295Z,28.98
2018-06-29T12:58:14.672Z,29.14
2018-06-29T12:59:24.955Z,29.25
2018-06-29T13:00:35.115Z,29.26
2018-06-29T13:01:45.326Z,29.29
2018-06-29T13:02:55.269Z,29.29
2018-06-29T13:04:05.444Z,29.35
2018-06-29T13:05:15.811Z,29.4
2018-06-29T13:06:26.211Z,29.4
2018-06-29T13:07:36.359Z,29.4
2018-06-29T13:08:46.268Z,29.43
2018-06-29T13:09:56.439Z,29.43
2018-06-29T13:11:06.625Z,29.29
2018-06-29T13:12:16.829Z,29.26
2018-06-29T13:13:27.001Z,29.21
2018-06-29T13:14:37.155Z,29.17
2018-06-29T13:15:47.409Z,29.07
2018-06-29T13:16:57.639Z,29.03
2018-06-29T13:18:07.875Z,29.03
2018-06-29T13:19:18.029Z,28.95
2018-06-29T13:20:28.525Z,28.96
2018-06-29T13:21:38.686Z,28.84
2018-06-29T13:22:48.889Z,28.96
2018-06-29T13:23:58.677Z,28.99
2018-06-29T13:25:08.804Z,29.01
2018-06-29T13:26:18.885Z,29.02
2018-06-29T13:27:29.147Z,29.16
2018-06-29T13:28:39.083Z,29.25
2018-06-29T13:29:49.278Z,29.26
2018-06-29T13:30:59.706Z,29.33
2018-06-29T13:32:10.025Z,29.4
2018-06-29T13:33:20.313Z,29.4
2018-06-29T13:34:30.496Z,29.43
2018-06-29T13:35:40.705Z,29.39
2018-06-29T13:36:50.916Z,29.44
2018-06-29T13:38:01.099Z,29.39
2018-06-29T13:39:11.398Z,29.33
2018-06-29T13:40:21.350Z,29.31
2018-06-29T13:41:31.550Z,29.23
2018-06-29T13:42:41.744Z,29.16
2018-06-29T13:43:52.229Z,29.06
2018-06-29T13:45:02.636Z,29.06
2018-06-29T13:46:12.799Z,29.06
2018-06-29T13:47:22.981Z,29.01
2018-06-29T13:48:33.445Z,29.03
2018-06-29T13:49:43.353Z,28.98
2018-06-29T13:50:53.618Z,28.98
2018-06-29T13:52:03.816Z,28.91
2018-06-29T13:53:14.042Z,28.8
2018-06-29T13:54:24.262Z,28.65
2018-06-29T13:55:34.443Z,28.69
2018-06-29T13:56:44.649Z,28.72
2018-06-29T13:57:54.907Z,28.65
2018-06-29T13:59:04.812Z,28.74
2018-06-29T14:00:14.990Z,28.7
2018-06-29T14:01:25.179Z,28.67
2018-06-29T14:02:35.559Z,28.7
2018-06-29T14:03:46.149Z,28.74
2018-06-29T14:04:55.985Z,28.72
2018-06-29T14:06:06.196Z,28.76
2018-06-29T14:07:16.390Z,28.57
2018-06-29T14:08:26.582Z,28.51
2018-06-29T14:09:36.767Z,28.61
2018-06-29T14:10:46.636Z,28.64
2018-06-29T14:11:56.946Z,28.51
2018-06-29T14:13:06.838Z,28.44
2018-06-29T14:14:17.046Z,28.5
2018-06-29T14:15:27.942Z,28.49
2018-06-29T14:16:38.103Z,28.6
2018-06-29T14:17:48.294Z,28.5
2018-06-29T14:18:58.461Z,28.58
2018-06-29T14:20:08.637Z,28.46
2018-06-29T14:21:18.821Z,28.41
2018-06-29T14:22:29.026Z,28.41
2018-06-29T14:23:39.243Z,28.5
2018-06-29T14:24:49.667Z,28.44
2018-06-29T14:25:59.856Z,28.39
2018-06-29T14:27:10.041Z,28.56
2018-06-29T14:28:20.238Z,28.51
2018-06-29T14:29:30.445Z,28.46
2018-06-29T14:30:40.520Z,28.46
2018-06-29T14:31:50.357Z,28.36
2018-06-29T14:33:00.591Z,28.31
2018-06-29T14:34:10.794Z,28.35
2018-06-29T14:35:21.151Z,28.29
2018-06-29T14:36:31.365Z,28.35
2018-06-29T14:37:41.307Z,28.32
2018-06-29T14:38:50.892Z,28.23
2018-06-29T14:40:01.072Z,28.34
2018-06-29T14:41:11.273Z,28.32
2018-06-29T14:42:21.503Z,28.31
2018-06-29T14:43:31.693Z,28.41
2018-06-29T14:44:41.908Z,28.35
2018-06-29T14:45:52.114Z,28.29
2018-06-29T14:47:02.301Z,28.29
2018-06-29T14:48:12.476Z,28.34
2018-06-29T14:49:23.684Z,28.22
2018-06-29T14:50:33.634Z,28.26
2018-06-29T14:51:43.553Z,28.24
2018-06-29T14:52:53.649Z,28.36
2018-06-29T14:54:03.849Z,28.26
2018-06-29T14:55:14.027Z,28.27
2018-06-29T14:56:24.172Z,28.41
2018-06-29T14:57:34.353Z,28.32
2018-06-29T14:58:44.535Z,28.29
2018-06-29T14:59:54.721Z,28.32
2018-06-29T15:01:04.915Z,28.31
2018-06-29T15:02:15.302Z,28.34
2018-06-29T15:03:25.480Z,28.19
2018-06-29T15:04:35.658Z,28.14
2018-06-29T15:05:45.896Z,28.13
2018-06-29T15:06:56.114Z,28.08
2018-06-29T15:08:06.341Z,28.05
2018-06-29T15:09:16.519Z,27.98